createdAt,value
2023-02-04T00:00:26.940Z,-1.30
2023-02-04T00:02:54.687Z,-1.20
2023-02-04T00:05:22.068Z,-1.50
2023-02-04T00:07:49.705Z,-2.00
2023-02-04T00:10:17.265Z,-2.30
2023-02-04T00:12:44.659Z,-2.60
2023-02-04T00:15:11.832Z,-2.80
2023-02-04T00:17:39.676Z,-3.00
2023-02-04T00:20:07.338Z,-3.20
2023-02-04T00:22:34.406Z,-2.80
2023-02-04T00:25:01.571Z,-1.80
2023-02-04T00:27:28.684Z,-0.90
2023-02-04T00:29:56.492Z,-0.20
2023-02-04T00:32:23.918Z,0.30
2023-02-04T00:34:51.271Z,0.80
2023-02-04T00:37:18.368Z,1.10
2023-02-04T00:39:45.695Z,1.40
2023-02-04T00:42:12.810Z,1.60
2023-02-04T00:44:40.242Z,1.80
2023-02-04T00:47:07.316Z,2.20
2023-02-04T00:49:35.229Z,2.40
2023-02-04T00:52:02.692Z,2.40
2023-02-04T00:54:30.371Z,2.40
2023-02-04T00:56:57.749Z,2.70
2023-02-04T00:59:25.760Z,2.90
2023-02-04T01:01:53.104Z,3.00
2023-02-04T01:04:21.521Z,3.00
2023-02-04T01:06:48.735Z,3.00
2023-02-04T01:09:15.963Z,3.10
2023-02-04T01:11:43.654Z,3.20
2023-02-04T01:14:11.084Z,3.20
2023-02-04T01:16:38.546Z,3.20
2023-02-04T01:19:05.671Z,3.20
2023-02-04T01:21:33.290Z,3.20
2023-02-04T01:24:00.696Z,3.20
2023-02-04T01:26:27.886Z,3.20
2023-02-04T01:28:55.193Z,3.20
2023-02-04T01:31:22.476Z,3.30
2023-02-04T01:33:50.017Z,3.30
2023-02-04T01:36:22.055Z,3.30
2023-02-04T01:38:50.923Z,3.30
2023-02-04T01:41:19.163Z,3.30
2023-02-04T01:43:48.295Z,3.50
2023-02-04T01:46:17.150Z,3.50
2023-02-04T01:48:45.257Z,3.60
2023-02-04T01:51:16.177Z,3.50
2023-02-04T01:53:44.193Z,3.60
2023-02-04T01:56:20.939Z,3.60
2023-02-04T01:58:49.604Z,3.60
2023-02-04T02:01:36.482Z,3.60
2023-02-04T02:04:05.069Z,3.60
2023-02-04T02:06:32.749Z,3.80
2023-02-04T02:08:59.889Z,3.90
2023-02-04T02:11:27.862Z,4.00
2023-02-04T02:13:55.624Z,4.10
2023-02-04T02:16:23.162Z,4.10
2023-02-04T02:18:51.382Z,4.10
2023-02-04T02:21:24.520Z,4.10
2023-02-04T02:24:01.090Z,4.10
2023-02-04T02:26:28.847Z,4.10
2023-02-04T02:28:56.551Z,4.20
2023-02-04T02:31:24.470Z,4.10
2023-02-04T02:33:51.744Z,4.10
2023-02-04T02:36:18.861Z,4.10
2023-02-04T02:38:46.053Z,4.20
2023-02-04T02:41:13.087Z,4.20
2023-02-04T02:43:40.492Z,4.20
2023-02-04T02:46:08.009Z,4.10
2023-02-04T02:48:35.348Z,4.10
2023-02-04T02:51:02.610Z,4.10
2023-02-04T02:53:29.629Z,4.00
2023-02-04T02:55:57.032Z,4.00
2023-02-04T02:58:29.083Z,4.10
2023-02-04T03:00:57.678Z,4.00
2023-02-04T03:03:31.789Z,4.00
2023-02-04T03:06:11.629Z,4.00
2023-02-04T03:08:39.411Z,4.00
2023-02-04T03:11:07.530Z,4.10
2023-02-04T03:13:35.006Z,4.00
2023-02-04T03:16:02.197Z,4.00
2023-02-04T03:18:30.050Z,4.00
2023-02-04T03:20:59.110Z,4.00
2023-02-04T03:23:27.448Z,4.00
2023-02-04T03:25:55.116Z,4.00
2023-02-04T03:28:22.457Z,3.90
2023-02-04T03:30:54.302Z,4.00
2023-02-04T03:33:24.907Z,4.00
2023-02-04T03:35:52.409Z,4.00
2023-02-04T03:38:20.041Z,4.00
2023-02-04T03:40:47.616Z,4.00
2023-02-04T03:43:14.652Z,3.90
2023-02-04T03:45:45.724Z,3.90
2023-02-04T03:48:13.346Z,4.00
2023-02-04T03:50:40.506Z,3.90
2023-02-04T03:53:08.004Z,3.80
2023-02-04T03:55:36.330Z,3.90
2023-02-04T03:58:04.635Z,3.90
2023-02-04T04:00:32.838Z,3.80
2023-02-04T04:03:00.733Z,3.90
2023-02-04T04:05:28.869Z,4.00
2023-02-04T04:07:56.055Z,4.00
2023-02-04T04:10:23.335Z,4.00
2023-02-04T04:12:50.345Z,4.00
2023-02-04T04:15:17.756Z,4.10
2023-02-04T04:17:45.065Z,4.20
2023-02-04T04:20:13.022Z,4.20
2023-02-04T04:22:40.522Z,4.30
2023-02-04T04:25:08.139Z,4.20
2023-02-04T04:27:35.264Z,4.30
2023-02-04T04:30:03.060Z,4.30
2023-02-04T04:32:30.336Z,4.30
2023-02-04T04:34:57.349Z,4.30
2023-02-04T04:37:24.372Z,4.20
2023-02-04T04:39:51.706Z,4.20
2023-02-04T04:42:18.988Z,4.20
2023-02-04T04:44:46.304Z,4.20
2023-02-04T04:47:13.561Z,4.30
2023-02-04T04:49:40.806Z,4.30
2023-02-04T04:52:07.804Z,4.30
2023-02-04T04:54:34.904Z,4.40
2023-02-04T04:57:02.033Z,4.40
2023-02-04T04:59:29.186Z,4.40
2023-02-04T05:01:56.203Z,4.40
2023-02-04T05:04:23.220Z,4.30
2023-02-04T05:06:50.532Z,4.40
2023-02-04T05:09:17.621Z,4.40
2023-02-04T05:11:44.880Z,4.40
2023-02-04T05:14:12.105Z,4.50
2023-02-04T05:16:39.443Z,4.50
2023-02-04T05:19:07.110Z,4.60
2023-02-04T05:21:34.474Z,4.60
2023-02-04T05:24:01.796Z,4.60
2023-02-04T05:26:30.946Z,4.70
2023-02-04T05:29:00.988Z,4.60
2023-02-04T05:31:28.801Z,4.60
2023-02-04T05:33:56.039Z,4.70
2023-02-04T05:36:23.259Z,4.60
2023-02-04T05:38:50.278Z,4.40
2023-02-04T05:41:17.305Z,3.20
2023-02-04T05:43:44.412Z,1.90
2023-02-04T05:46:11.826Z,1.30
2023-02-04T05:48:40.856Z,1.00
2023-02-04T05:51:08.147Z,0.50
2023-02-04T05:53:35.713Z,-0.30
2023-02-04T05:56:03.002Z,-0.90
2023-02-04T05:58:39.999Z,-1.40
2023-02-04T06:01:07.645Z,-1.70
2023-02-04T06:03:34.861Z,-2.10
2023-02-04T06:06:01.992Z,-2.10
2023-02-04T06:08:29.112Z,-2.10
2023-02-04T06:10:56.300Z,-1.80
2023-02-04T06:13:23.645Z,-1.90
2023-02-04T06:15:50.977Z,-2.10
2023-02-04T06:18:18.348Z,-2.20
2023-02-04T06:20:45.343Z,-2.00
2023-02-04T06:23:12.362Z,-2.20
2023-02-04T06:25:39.372Z,-2.30
2023-02-04T06:28:06.714Z,-2.50
2023-02-04T06:30:34.268Z,-2.50
2023-02-04T06:33:02.198Z,-2.70
2023-02-04T06:35:29.681Z,-2.80
2023-02-04T06:37:56.906Z,-2.90
2023-02-04T06:40:24.168Z,-2.90
2023-02-04T06:42:51.518Z,-2.90
2023-02-04T06:45:19.104Z,-2.90
2023-02-04T06:47:46.404Z,-2.90
2023-02-04T06:50:18.887Z,-2.60
2023-02-04T06:52:50.040Z,-2.60
2023-02-04T06:55:18.430Z,-2.10
2023-02-04T06:57:45.719Z,-1.80
2023-02-04T07:00:13.468Z,-2.10
2023-02-04T07:02:40.845Z,-2.00
2023-02-04T07:05:08.525Z,-1.50
2023-02-04T07:07:35.839Z,-0.70
2023-02-04T07:10:03.355Z,0.20
2023-02-04T07:12:30.708Z,1.10
2023-02-04T07:14:58.629Z,1.60
2023-02-04T07:17:25.928Z,1.90
2023-02-04T07:19:53.754Z,2.20
2023-02-04T07:22:20.976Z,2.30
2023-02-04T07:24:48.272Z,2.50
2023-02-04T07:27:15.266Z,2.60
2023-02-04T07:29:42.579Z,2.70
2023-02-04T07:32:09.852Z,2.90
2023-02-04T07:34:37.476Z,3.00
2023-02-04T07:37:04.853Z,3.10
2023-02-04T07:39:32.355Z,3.20
2023-02-04T07:41:59.614Z,3.40
2023-02-04T07:44:26.909Z,3.50
2023-02-04T07:46:54.130Z,3.60
2023-02-04T07:49:21.396Z,3.70
2023-02-04T07:51:48.607Z,3.70
2023-02-04T07:54:15.866Z,3.80
2023-02-04T07:56:42.860Z,3.80
2023-02-04T07:59:10.192Z,3.90
2023-02-04T08:01:37.203Z,4.00
2023-02-04T08:04:04.473Z,4.10
2023-02-04T08:06:31.588Z,4.30
2023-02-04T08:08:58.715Z,4.40
2023-02-04T08:11:27.198Z,4.40
2023-02-04T08:13:54.239Z,4.40
2023-02-04T08:16:21.304Z,4.50
2023-02-04T08:18:48.360Z,4.50
2023-02-04T08:21:15.360Z,4.40
2023-02-04T08:23:42.624Z,4.50
2023-02-04T08:26:11.547Z,4.60
2023-02-04T08:28:39.569Z,4.80
2023-02-04T08:31:07.459Z,5.00
2023-02-04T08:33:34.804Z,5.20
2023-02-04T08:36:01.980Z,5.30
2023-02-04T08:38:29.250Z,5.50
2023-02-04T08:40:56.578Z,5.80
2023-02-04T08:43:23.816Z,5.80
2023-02-04T08:45:51.421Z,6.00
2023-02-04T08:48:18.665Z,6.20
2023-02-04T08:50:46.076Z,6.30
2023-02-04T08:53:13.342Z,6.30
2023-02-04T08:55:40.608Z,6.30
2023-02-04T08:58:08.446Z,6.10
2023-02-04T09:00:36.044Z,6.20
2023-02-04T09:03:03.283Z,6.10
2023-02-04T09:08:16.124Z,6.20
2023-02-04T09:10:43.124Z,6.10
2023-02-04T09:13:12.563Z,5.90
2023-02-04T09:15:39.623Z,5.70
2023-02-04T09:18:15.173Z,5.70
2023-02-04T09:20:43.100Z,5.80
2023-02-04T09:23:12.452Z,6.00
2023-02-04T09:25:40.350Z,6.00
2023-02-04T09:28:11.744Z,5.90
2023-02-04T09:30:40.257Z,5.70
2023-02-04T09:33:08.155Z,5.60
2023-02-04T09:35:35.463Z,5.70
2023-02-04T09:38:03.068Z,5.70
2023-02-04T09:40:35.482Z,5.70
2023-02-04T09:43:04.567Z,5.70
2023-02-04T09:45:35.149Z,5.80
2023-02-04T09:48:05.327Z,5.90
2023-02-04T09:50:34.146Z,5.70
2023-02-04T09:53:06.641Z,5.50
2023-02-04T09:55:40.127Z,5.30
2023-02-04T09:58:19.599Z,5.20
2023-02-04T10:00:49.817Z,5.30
2023-02-04T10:03:22.576Z,5.20
2023-02-04T10:05:51.714Z,5.30
2023-02-04T10:08:29.813Z,5.10
2023-02-04T10:10:58.152Z,5.40
2023-02-04T10:13:32.757Z,5.30
2023-02-04T10:16:01.482Z,5.20
2023-02-04T10:18:34.561Z,5.20
2023-02-04T10:21:14.309Z,4.90
2023-02-04T10:23:42.551Z,4.60
2023-02-04T10:26:13.717Z,3.90
2023-02-04T10:28:40.918Z,3.20
2023-02-04T10:31:38.203Z,2.80
2023-02-04T10:34:19.267Z,2.20
2023-02-04T10:36:49.161Z,1.50
2023-02-04T10:39:19.430Z,1.10
2023-02-04T10:41:51.478Z,1.20
2023-02-04T10:44:26.020Z,0.90
2023-02-04T10:47:08.894Z,0.70
2023-02-04T10:49:36.838Z,0.70
2023-02-04T10:52:16.726Z,1.00
2023-02-04T10:54:44.279Z,0.90
2023-02-04T10:57:20.870Z,1.00
2023-02-04T10:59:55.650Z,1.20
2023-02-04T11:02:43.515Z,2.00
2023-02-04T11:05:17.334Z,3.00
2023-02-04T11:07:47.728Z,3.60
2023-02-04T11:10:29.855Z,3.80
2023-02-04T11:12:57.515Z,4.00
2023-02-04T11:15:42.378Z,4.10
2023-02-04T11:18:14.324Z,4.20
2023-02-04T11:20:41.754Z,4.20
2023-02-04T11:23:27.698Z,4.40
2023-02-04T11:26:14.450Z,4.30
2023-02-04T11:28:41.936Z,4.40
2023-02-04T11:31:35.603Z,4.50
2023-02-04T11:34:16.640Z,4.50
2023-02-04T11:37:02.256Z,4.20
2023-02-04T11:39:34.729Z,4.10
2023-02-04T11:42:02.683Z,4.10
2023-02-04T11:44:30.047Z,4.10
2023-02-04T11:46:58.808Z,4.20
2023-02-04T11:49:27.656Z,4.30
2023-02-04T11:52:13.151Z,4.20
2023-02-04T11:54:40.404Z,4.40
2023-02-04T11:57:07.593Z,4.60
2023-02-04T11:59:34.925Z,4.70
2023-02-04T12:02:24.509Z,4.50
2023-02-04T12:05:13.649Z,4.60
2023-02-04T12:07:41.664Z,4.50
2023-02-04T12:10:15.109Z,4.60
2023-02-04T12:12:50.736Z,4.50
2023-02-04T12:15:26.156Z,4.60
2023-02-04T12:18:03.769Z,4.40
2023-02-04T12:20:31.739Z,4.30
2023-02-04T12:23:00.564Z,4.40
2023-02-04T12:25:29.724Z,4.30
2023-02-04T12:27:58.798Z,4.50
2023-02-04T12:30:28.018Z,4.40
2023-02-04T12:32:56.578Z,4.50
2023-02-04T12:35:25.364Z,4.50
2023-02-04T12:37:54.271Z,4.70
2023-02-04T12:40:22.324Z,4.50
2023-02-04T12:42:50.786Z,4.50
2023-02-04T12:45:18.752Z,4.50
2023-02-04T12:47:46.237Z,4.50
2023-02-04T12:50:16.167Z,4.60
2023-02-04T12:52:43.309Z,4.50
2023-02-04T12:55:10.838Z,4.50
2023-02-04T12:57:38.264Z,4.60
2023-02-04T13:00:06.045Z,4.70
2023-02-04T13:02:33.373Z,4.80
2023-02-04T13:05:00.579Z,4.70
2023-02-04T13:07:27.864Z,4.50
2023-02-04T13:09:55.010Z,4.50
2023-02-04T13:12:22.060Z,4.60
2023-02-04T13:14:49.100Z,4.60
2023-02-04T13:17:16.796Z,4.80
2023-02-04T13:19:44.376Z,4.80
2023-02-04T13:22:11.517Z,4.70
2023-02-04T13:24:38.892Z,4.60
2023-02-04T13:27:06.120Z,4.50
2023-02-04T13:29:33.229Z,4.50
2023-02-04T13:32:00.707Z,4.50
2023-02-04T13:34:28.029Z,4.50
2023-02-04T13:36:55.095Z,4.70
2023-02-04T13:39:22.075Z,4.70
2023-02-04T13:41:49.378Z,4.70
2023-02-04T13:44:21.234Z,4.80
2023-02-04T13:46:50.220Z,4.70
2023-02-04T13:49:17.805Z,4.50
2023-02-04T13:51:45.150Z,4.40
2023-02-04T13:54:12.807Z,4.30
2023-02-04T13:56:41.335Z,4.30
2023-02-04T13:59:08.412Z,4.30
2023-02-04T14:01:35.752Z,4.50
2023-02-04T14:04:02.897Z,4.60
2023-02-04T14:06:34.970Z,4.50
2023-02-04T14:09:02.961Z,4.30
2023-02-04T14:11:30.363Z,4.20
2023-02-04T14:13:57.920Z,4.20
2023-02-04T14:16:24.954Z,4.20
2023-02-04T14:18:52.320Z,4.10
2023-02-04T14:21:19.694Z,4.10
2023-02-04T14:23:46.896Z,4.30
2023-02-04T14:26:13.971Z,4.40
2023-02-04T14:28:40.978Z,4.40
2023-02-04T14:31:08.339Z,4.10
2023-02-04T14:33:35.562Z,4.20
2023-02-04T14:36:02.869Z,4.00
2023-02-04T14:38:31.328Z,4.10
2023-02-04T14:40:58.872Z,4.20
2023-02-04T14:43:26.652Z,4.10
2023-02-04T14:45:54.189Z,4.00
2023-02-04T14:48:21.221Z,4.10
2023-02-04T14:50:48.534Z,4.10
2023-02-04T14:53:15.790Z,4.30
2023-02-04T14:55:44.105Z,4.40
2023-02-04T14:58:11.539Z,4.40
2023-02-04T15:00:38.876Z,4.10
2023-02-04T15:03:07.521Z,3.90
2023-02-04T15:05:35.187Z,3.90
2023-02-04T15:08:02.516Z,3.60
2023-02-04T15:10:30.047Z,3.50
2023-02-04T15:12:58.229Z,3.50
2023-02-04T15:15:25.728Z,3.40
2023-02-04T15:17:52.916Z,3.20
2023-02-04T15:20:20.174Z,3.10
2023-02-04T15:22:52.153Z,3.00
2023-02-04T15:25:19.702Z,3.10
2023-02-04T15:27:46.953Z,3.00
2023-02-04T15:30:14.648Z,3.10
2023-02-04T15:32:42.985Z,3.00
2023-02-04T15:35:10.281Z,2.90
2023-02-04T15:37:37.656Z,3.00
2023-02-04T15:40:06.289Z,2.90
2023-02-04T15:42:33.586Z,2.80
2023-02-04T15:45:00.789Z,2.80
2023-02-04T15:47:27.992Z,2.70
2023-02-04T15:49:54.996Z,2.70
2023-02-04T15:52:25.190Z,2.70
2023-02-04T15:54:53.087Z,2.60
2023-02-04T15:57:20.126Z,2.60
2023-02-04T15:59:47.383Z,2.60
2023-02-04T16:02:14.732Z,2.60
2023-02-04T16:04:45.454Z,2.60
2023-02-04T16:07:12.906Z,2.50
2023-02-04T16:09:40.262Z,2.40
2023-02-04T16:12:07.867Z,2.40
2023-02-04T16:14:35.168Z,2.40
2023-02-04T16:17:02.469Z,2.30
2023-02-04T16:19:29.616Z,2.20
2023-02-04T16:21:56.674Z,2.30
2023-02-04T16:24:24.192Z,2.30
2023-02-04T16:26:51.398Z,2.30
2023-02-04T16:29:18.532Z,2.30
2023-02-04T16:31:45.880Z,2.40
2023-02-04T16:34:12.956Z,2.40
2023-02-04T16:36:40.113Z,2.30
2023-02-04T16:39:07.182Z,2.30
2023-02-04T16:41:34.495Z,2.30
2023-02-04T16:44:01.813Z,2.30
2023-02-04T16:46:30.869Z,2.30
2023-02-04T16:48:58.371Z,2.20
2023-02-04T16:51:25.836Z,2.20
2023-02-04T16:53:52.890Z,2.20
2023-02-04T16:56:20.523Z,2.20
2023-02-04T16:58:47.635Z,2.10
2023-02-04T17:01:17.543Z,1.90
2023-02-04T17:03:45.210Z,0.90
2023-02-04T17:06:16.480Z,-0.50
2023-02-04T17:08:43.964Z,-1.50
2023-02-04T17:11:28.980Z,-1.90
2023-02-04T17:13:57.402Z,-2.50
2023-02-04T17:16:25.167Z,-1.90
2023-02-04T17:18:52.300Z,-1.60
2023-02-04T17:21:19.562Z,-1.90
2023-02-04T17:23:48.374Z,-1.60
2023-02-04T17:26:15.858Z,-0.80
2023-02-04T17:28:43.074Z,-0.90
2023-02-04T17:31:10.527Z,-1.80
2023-02-04T17:33:37.815Z,-2.50
2023-02-04T17:36:05.489Z,-2.80
2023-02-04T17:38:33.589Z,-3.10
2023-02-04T17:41:03.174Z,-3.20
2023-02-04T17:43:30.997Z,-3.10
2023-02-04T17:45:58.112Z,-3.40
2023-02-04T17:48:25.319Z,-3.70
2023-02-04T17:50:54.350Z,-3.80
2023-02-04T17:53:22.756Z,-3.60
2023-02-04T17:55:50.133Z,-3.30
2023-02-04T17:58:22.746Z,-3.60
2023-02-04T18:00:51.309Z,-3.80
2023-02-04T18:03:24.013Z,-4.10
2023-02-04T18:05:54.672Z,-4.50
2023-02-04T18:08:25.403Z,-4.70
2023-02-04T18:10:54.842Z,-4.80
2023-02-04T18:13:31.681Z,-4.70
2023-02-04T18:16:01.209Z,-4.80
2023-02-04T18:18:32.739Z,-4.60
2023-02-04T18:21:25.487Z,-4.80
2023-02-04T18:24:09.574Z,-5.10
2023-02-04T18:26:45.128Z,-5.30
2023-02-04T18:29:27.386Z,-5.00
2023-02-04T18:32:06.619Z,-4.60
2023-02-04T18:34:40.473Z,-3.50
2023-02-04T18:37:33.892Z,-3.90
2023-02-04T18:40:24.091Z,-3.40
2023-02-04T18:43:18.941Z,-1.90
2023-02-04T18:45:46.580Z,-0.80
2023-02-04T18:48:19.378Z,0.00
2023-02-04T18:50:51.904Z,0.40
2023-02-04T18:53:27.559Z,0.50
2023-02-04T18:55:59.988Z,0.60
2023-02-04T18:58:35.056Z,0.70
2023-02-04T19:01:09.753Z,0.80
2023-02-04T19:03:59.828Z,0.80
2023-02-04T19:06:32.466Z,0.80
2023-02-04T19:09:24.449Z,0.90
2023-02-04T19:11:54.090Z,1.00
2023-02-04T19:14:40.397Z,1.00
2023-02-04T19:17:25.338Z,1.10
2023-02-04T19:19:57.129Z,1.00
2023-02-04T19:22:37.782Z,1.00
2023-02-04T19:25:33.661Z,0.90
2023-02-04T19:28:02.981Z,0.80
2023-02-04T19:30:30.592Z,0.70
2023-02-04T19:32:59.853Z,0.60
2023-02-04T19:35:39.458Z,0.60
2023-02-04T19:38:39.688Z,0.70
2023-02-04T19:41:33.825Z,0.80
2023-02-04T19:44:13.784Z,0.80
2023-02-04T19:46:42.066Z,0.80
2023-02-04T19:49:25.384Z,0.70
2023-02-04T19:51:55.448Z,0.70
2023-02-04T19:54:44.669Z,0.70
2023-02-04T19:57:30.442Z,0.70
2023-02-04T19:59:58.635Z,0.70
2023-02-04T20:02:39.928Z,0.70
2023-02-04T20:08:24.420Z,0.70
2023-02-04T20:10:51.617Z,0.60
2023-02-04T20:13:20.694Z,0.60
2023-02-04T20:15:47.920Z,0.60
2023-02-04T20:18:23.063Z,0.50
2023-02-04T20:20:50.493Z,0.40
2023-02-04T20:23:33.235Z,0.30
2023-02-04T20:26:01.587Z,0.30
2023-02-04T20:28:36.274Z,0.20
2023-02-04T20:31:17.710Z,0.20
2023-02-04T20:33:50.526Z,0.10
2023-02-04T20:36:26.798Z,0.10
2023-02-04T20:39:17.161Z,0.10
2023-02-04T20:41:44.679Z,0.00
2023-02-04T20:44:28.707Z,0.00
2023-02-04T20:47:11.681Z,0.00
2023-02-04T20:49:42.901Z,0.00
2023-02-04T20:52:41.992Z,0.00
2023-02-04T20:55:27.149Z,0.00
2023-02-04T20:58:36.493Z,0.00
2023-02-04T21:01:04.262Z,0.10
2023-02-04T21:03:37.021Z,0.10
2023-02-04T21:06:22.100Z,0.10
2023-02-04T21:08:51.855Z,0.10
2023-02-04T21:11:19.633Z,0.10
2023-02-04T21:13:47.049Z,0.10
2023-02-04T21:16:14.434Z,0.00
2023-02-04T21:18:42.051Z,0.00
2023-02-04T21:21:10.376Z,0.10
2023-02-04T21:23:40.798Z,0.00
2023-02-04T21:26:07.958Z,0.00
2023-02-04T21:28:35.747Z,0.00
2023-02-04T21:31:03.524Z,0.10
2023-02-04T21:33:31.056Z,0.10
2023-02-04T21:35:58.476Z,0.20
2023-02-04T21:38:25.875Z,0.10
2023-02-04T21:40:53.191Z,0.10
2023-02-04T21:43:20.475Z,0.10
2023-02-04T21:45:47.607Z,0.10
2023-02-04T21:48:14.973Z,0.10
2023-02-04T21:50:42.400Z,0.00
2023-02-04T21:53:10.485Z,0.10
2023-02-04T21:55:37.951Z,0.20
2023-02-04T21:58:06.044Z,0.20
2023-02-04T22:00:37.102Z,0.30
2023-02-04T22:03:06.488Z,0.30
2023-02-04T22:05:34.014Z,0.30
2023-02-04T22:08:01.400Z,0.20
2023-02-04T22:10:28.655Z,0.20
2023-02-04T22:12:56.149Z,0.20
2023-02-04T22:15:24.553Z,0.20
2023-02-04T22:17:54.268Z,0.20
2023-02-04T22:20:25.861Z,0.30
2023-02-04T22:22:53.594Z,0.30
2023-02-04T22:25:22.209Z,0.30
2023-02-04T22:27:49.851Z,0.30
2023-02-04T22:30:18.842Z,0.30
2023-02-04T22:32:46.164Z,0.30
2023-02-04T22:35:14.176Z,0.20
2023-02-04T22:37:42.451Z,0.20
2023-02-04T22:40:11.456Z,0.20
2023-02-04T22:42:38.807Z,0.20
2023-02-04T22:45:06.327Z,0.20
2023-02-04T22:47:33.322Z,0.20
2023-02-04T22:50:00.782Z,0.30
2023-02-04T22:52:27.884Z,0.40
2023-02-04T22:54:54.861Z,0.40
2023-02-04T22:57:22.212Z,0.40
2023-02-04T22:59:49.492Z,0.40
2023-02-04T23:02:16.529Z,0.40
2023-02-04T23:07:28.797Z,0.40
2023-02-04T23:09:56.192Z,0.50
2023-02-04T23:12:23.425Z,0.50
2023-02-04T23:14:50.628Z,0.50
2023-02-04T23:17:18.750Z,0.40
2023-02-04T23:19:46.515Z,0.40
2023-02-04T23:22:14.441Z,0.40
2023-02-04T23:24:43.109Z,0.50
2023-02-04T23:27:11.690Z,0.50
2023-02-04T23:29:40.220Z,0.50
2023-02-04T23:32:07.776Z,0.50
2023-02-04T23:34:35.695Z,0.40
2023-02-04T23:37:03.279Z,0.30
2023-02-04T23:39:30.889Z,0.20
2023-02-04T23:41:58.174Z,0.20
2023-02-04T23:44:25.592Z,0.20
2023-02-04T23:46:52.788Z,0.20
2023-02-04T23:49:19.898Z,-0.10
2023-02-04T23:51:47.447Z,-1.00
2023-02-04T23:54:14.832Z,-1.90
2023-02-04T23:56:42.278Z,-2.40
2023-02-04T23:59:09.552Z,-2.70
